Ponce Inlet, Florida
Current Conditions -  °F | °C
As of 7:50 AM on Thursday 23 Oct 2014 (Local Time) from KEVB Reporting Station
Few Clouds Few Clouds  
Wind Chill: 68°   Ceiling: Unl
Heat Index: 68°   Visibility: 10mi
Dew Point: 55°   Wind: 12mph
Humidity: 64%   Direction: 40°NE
Pressure: 30"   Gusts: NA
Location:  29.1091°N, 80.9979°W
Report Text: KEVB 231150Z 04010KT 10SM FEW040 20/13 A3000
Loading
Personal Weather Stations






























Interactive Weather Map
Tropical Storm Tracking
New forecast layout! Learn more

10-Day Weather Forecast

Advertisements
Track Severe Weather on mobile